LPPRZSHC [TP119]

Guest
Details From LPPR - Porto
To ZSHC - Xiaoshan
Flight Number TP119
Tags Real Commercial Decoded
Created
Modified
Stats Distance 5,889 nm / 10,907 km
Max Altitude 0 ft / 0 m
Waypoints 8
Social Downloads 1
Likes 0
Share VATSIM

Download

Looking for another format? Having issues loading an existing format? Contact us
Advertisement - Login to hide

Notes

Decoded

Route

LPPR LPBG LSZH EPWA UACC UNAA ZMUB ZSHC

ID Type Via Altitude Latitude Longitude Leg Dist Tot Dist Heading (true) Name
O LPPR APT - 0 ft / 0 m 41.26333˚ -8.68524˚ - 0 nm - -
LPBG APT - 0 ft / 0 m 41.85029˚ -6.70957˚ 95 nm 95 nm 68° / 69° -
LSZH APT - 0 ft / 0 m 47.45894˚ 8.53748˚ 731 nm 827 nm 57° / 68° -
EPWA APT - 0 ft / 0 m 52.17148˚ 20.94671˚ 556 nm 1384 nm 55° / 64° -
UACC APT - 0 ft / 0 m 51.01097˚ 71.44957˚ 1847 nm 3231 nm 72° / 112° -
UNAA APT - 0 ft / 0 m 53.74374˚ 91.38316˚ 746 nm 3977 nm 70° / 85° -
ZMUB APT - 0 ft / 0 m 47.84978˚ 106.75170˚ 680 nm 4657 nm 115° / 127° -
O ZSHC APT - 0 ft / 0 m 30.22212˚ 120.41780˚ 1231 nm 5889 nm 144° / 153° -

Altitude Profile

Advertisement - Login to hide

Weather


0- 5 10 15 20 25 30 35+ Temperature / ° C

Clouds and Precipitation
Forecast for 2017-12-17 18:00 UTC. Updated 31 minutes ago

Ground ~20,000 ft ~40,000 ft Winds

LPPR

Details ICAO LPPR (OPO)
Name Porto
Region Portugal
Timezone Europe/Lisbon (UTC+0.0)
Stats Elevation 228 ft / 69 m (AMSL)
Location 41.247932° -8.681221°
Runways 1
Magnetic Variation 2.338° W

METAR

LPPR 171730Z 36005KT CAVOK 09/05 Q1033

Decode

TAF

TAF LPPR 171100Z 1712/1812 08005KT CAVOK PROB30 1713/1718 36008KT BECMG 1718/1720 VRB03KT BECMG 1721/1723 08005KT BECMG 1809/1811 VRB03KT

Decode

Departure Runways

ID Width Length Bearing (true) Bearing (mag) Surface Threshold Offset Overrun Length
17 148 ft / 45 m 11,451 ft / 3,490 m 168.88° 171.22° Asphalt 984 ft / 300 m 220 ft / 67 m
35 148 ft / 45 m 11,451 ft / 3,490 m 348.89° 351.23° Asphalt 492 ft / 150 m 370 ft / 113 m

ZSHC

Details ICAO ZSHC (HGH)
Name XIAOSHAN
Region China
Timezone Asia/Shanghai (UTC+8.0)
Stats Elevation 23 ft / 7 m (AMSL)
Location 30.229504° 120.434453°
Runways 1
Magnetic Variation 5.533° W

METAR

ZSHC 171730Z 25002MPS CAVOK M02/M04 Q1035 NOSIG

Decode

TAF

Not found

Destination Runways

ID Width Length Bearing (true) Bearing (mag) Surface Threshold Offset Overrun Length
07 148 ft / 45 m 11,803 ft / 3,598 m 62.82° 68.35° Concrete 0 ft / 0 m 200 ft / 61 m
25 148 ft / 45 m 11,803 ft / 3,598 m 242.84° 248.37° Concrete 0 ft / 0 m 200 ft / 61 m

Approach Navaids

Runway Type Ident Frequency Range Bearing (true) Bearing (mag) Slope Elevation
07 Localiser IXX 109.90 MHz 18 nm / 33 km 61.92° 67.45° - 23 ft / 7 m (AMSL)
07 Glidescope IXX 109.90 MHz 10 nm / 19 km 62.83° 68.36° 3.00° 23 ft / 7 m (AMSL)
25 Localiser IDD 108.50 MHz 18 nm / 33 km 242.20° 247.74° - 23 ft / 7 m (AMSL)
25 Glidescope IDD 108.50 MHz 10 nm / 19 km 242.83° 248.36° 3.00° 23 ft / 7 m (AMSL)